sensor_id;sensor_type;location;lat;lon;timestamp;temperature;humidity
65989;HTU21D;53592;51.402;6.054;2022-10-31T00:00:56;16.13;80.28
65989;HTU21D;53592;51.402;6.054;2022-10-31T00:03:21;16.17;80.20
65989;HTU21D;53592;51.402;6.054;2022-10-31T00:05:49;16.20;79.93
65989;HTU21D;53592;51.402;6.054;2022-10-31T00:08:16;16.19;79.98
65989;HTU21D;53592;51.402;6.054;2022-10-31T00:10:43;16.15;80.08
65989;HTU21D;53592;51.402;6.054;2022-10-31T00:13:11;16.18;79.91
65989;HTU21D;53592;51.402;6.054;2022-10-31T00:15:38;16.17;79.73
65989;HTU21D;53592;51.402;6.054;2022-10-31T00:18:06;16.13;79.78
65989;HTU21D;53592;51.402;6.054;2022-10-31T00:20:32;16.13;79.60
65989;HTU21D;53592;51.402;6.054;2022-10-31T00:22:59;16.13;79.32
65989;HTU21D;53592;51.402;6.054;2022-10-31T00:25:26;16.17;78.86
65989;HTU21D;53592;51.402;6.054;2022-10-31T00:27:52;16.19;78.48
65989;HTU21D;53592;51.402;6.054;2022-10-31T00:30:18;16.15;78.39
65989;HTU21D;53592;51.402;6.054;2022-10-31T00:32:43;16.07;78.57
65989;HTU21D;53592;51.402;6.054;2022-10-31T00:35:09;16.02;78.70
65989;HTU21D;53592;51.402;6.054;2022-10-31T00:37:34;15.96;78.82
65989;HTU21D;53592;51.402;6.054;2022-10-31T00:40:00;15.93;78.86
65989;HTU21D;53592;51.402;6.054;2022-10-31T00:42:26;15.95;78.39
65989;HTU21D;53592;51.402;6.054;2022-10-31T00:44:51;15.88;78.54
65989;HTU21D;53592;51.402;6.054;2022-10-31T00:47:17;15.74;79.33
65989;HTU21D;53592;51.402;6.054;2022-10-31T00:49:42;15.60;80.05
65989;HTU21D;53592;51.402;6.054;2022-10-31T00:52:08;15.53;80.76
65989;HTU21D;53592;51.402;6.054;2022-10-31T00:54:33;15.43;81.20
65989;HTU21D;53592;51.402;6.054;2022-10-31T00:56:59;15.31;81.70
65989;HTU21D;53592;51.402;6.054;2022-10-31T00:59:24;15.28;82.09
65989;HTU21D;53592;51.402;6.054;2022-10-31T01:01:50;15.28;82.27
65989;HTU21D;53592;51.402;6.054;2022-10-31T01:04:15;15.30;82.17
65989;HTU21D;53592;51.402;6.054;2022-10-31T01:06:41;15.27;82.23
65989;HTU21D;53592;51.402;6.054;2022-10-31T01:09:07;15.28;82.32
65989;HTU21D;53592;51.402;6.054;2022-10-31T01:11:32;15.29;82.21
65989;HTU21D;53592;51.402;6.054;2022-10-31T01:13:58;15.31;82.07
65989;HTU21D;53592;51.402;6.054;2022-10-31T01:16:25;15.30;82.14
65989;HTU21D;53592;51.402;6.054;2022-10-31T01:18:51;15.27;82.30
65989;HTU21D;53592;51.402;6.054;2022-10-31T01:21:26;15.23;82.35
65989;HTU21D;53592;51.402;6.054;2022-10-31T01:23:55;15.19;82.60
65989;HTU21D;53592;51.402;6.054;2022-10-31T01:26:24;15.17;81.94
65989;HTU21D;53592;51.402;6.054;2022-10-31T01:28:56;15.15;81.58
65989;HTU21D;53592;51.402;6.054;2022-10-31T01:31:25;15.18;81.47
65989;HTU21D;53592;51.402;6.054;2022-10-31T01:33:51;15.24;81.27
65989;HTU21D;53592;51.402;6.054;2022-10-31T01:36:23;15.27;81.12
65989;HTU21D;53592;51.402;6.054;2022-10-31T01:38:50;15.34;80.71
65989;HTU21D;53592;51.402;6.054;2022-10-31T01:41:19;15.36;80.36
65989;HTU21D;53592;51.402;6.054;2022-10-31T01:43:53;15.36;80.23
65989;HTU21D;53592;51.402;6.054;2022-10-31T01:48:52;15.31;80.46
65989;HTU21D;53592;51.402;6.054;2022-10-31T01:51:22;15.30;80.91
65989;HTU21D;53592;51.402;6.054;2022-10-31T01:53:51;15.24;81.33
65989;HTU21D;53592;51.402;6.054;2022-10-31T01:56:18;15.16;81.74
65989;HTU21D;53592;51.402;6.054;2022-10-31T01:58:46;15.19;81.88
65989;HTU21D;53592;51.402;6.054;2022-10-31T02:01:14;15.19;81.88
65989;HTU21D;53592;51.402;6.054;2022-10-31T02:03:41;15.13;81.98
65989;HTU21D;53592;51.402;6.054;2022-10-31T02:09:06;15.03;82.64
65989;HTU21D;53592;51.402;6.054;2022-10-31T02:11:34;15.03;82.67
65989;HTU21D;53592;51.402;6.054;2022-10-31T02:14:02;15.07;82.65
65989;HTU21D;53592;51.402;6.054;2022-10-31T02:16:28;15.12;82.43
65989;HTU21D;53592;51.402;6.054;2022-10-31T02:18:54;15.18;82.02
65989;HTU21D;53592;51.402;6.054;2022-10-31T02:21:33;15.22;81.61
65989;HTU21D;53592;51.402;6.054;2022-10-31T02:24:25;15.24;81.23
65989;HTU21D;53592;51.402;6.054;2022-10-31T02:26:58;15.25;80.98
65989;HTU21D;53592;51.402;6.054;2022-10-31T02:32:25;15.16;81.09
65989;HTU21D;53592;51.402;6.054;2022-10-31T02:37:55;15.23;80.29
65989;HTU21D;53592;51.402;6.054;2022-10-31T02:43:24;15.21;79.82
65989;HTU21D;53592;51.402;6.054;2022-10-31T02:49:00;15.03;80.04
65989;HTU21D;53592;51.402;6.054;2022-10-31T02:51:27;14.99;80.15
65989;HTU21D;53592;51.402;6.054;2022-10-31T02:53:53;14.91;80.32
65989;HTU21D;53592;51.402;6.054;2022-10-31T02:56:19;14.85;80.70
65989;HTU21D;53592;51.402;6.054;2022-10-31T02:58:53;14.86;80.70
65989;HTU21D;53592;51.402;6.054;2022-10-31T03:06:59;14.77;80.16
65989;HTU21D;53592;51.402;6.054;2022-10-31T03:09:43;14.65;80.14
65989;HTU21D;53592;51.402;6.054;2022-10-31T03:12:15;14.57;80.54
65989;HTU21D;53592;51.402;6.054;2022-10-31T03:14:53;14.52;80.55
65989;HTU21D;53592;51.402;6.054;2022-10-31T03:17:36;14.48;80.68
65989;HTU21D;53592;51.402;6.054;2022-10-31T03:20:06;14.42;81.15
65989;HTU21D;53592;51.402;6.054;2022-10-31T03:22:34;14.40;81.53
65989;HTU21D;53592;51.402;6.054;2022-10-31T03:25:04;14.36;81.78
65989;HTU21D;53592;51.402;6.054;2022-10-31T03:27:33;14.32;81.97
65989;HTU21D;53592;51.402;6.054;2022-10-31T03:30:04;14.25;82.36
65989;HTU21D;53592;51.402;6.054;2022-10-31T03:32:43;14.24;82.75
65989;HTU21D;53592;51.402;6.054;2022-10-31T03:35:13;14.21;83.13
65989;HTU21D;53592;51.402;6.054;2022-10-31T03:37:41;14.13;83.46
65989;HTU21D;53592;51.402;6.054;2022-10-31T03:40:09;14.10;83.61
65989;HTU21D;53592;51.402;6.054;2022-10-31T03:42:41;14.08;83.57
65989;HTU21D;53592;51.402;6.054;2022-10-31T03:45:11;14.07;83.58
65989;HTU21D;53592;51.402;6.054;2022-10-31T03:47:38;14.04;83.59
65989;HTU21D;53592;51.402;6.054;2022-10-31T03:50:07;14.08;83.57
65989;HTU21D;53592;51.402;6.054;2022-10-31T03:52:44;14.09;83.48
65989;HTU21D;53592;51.402;6.054;2022-10-31T03:57:49;14.08;83.43
65989;HTU21D;53592;51.402;6.054;2022-10-31T04:00:17;14.07;83.52
65989;HTU21D;53592;51.402;6.054;2022-10-31T04:03:14;14.09;83.51
65989;HTU21D;53592;51.402;6.054;2022-10-31T04:05:43;14.10;83.10
65989;HTU21D;53592;51.402;6.054;2022-10-31T04:08:15;14.12;82.62
65989;HTU21D;53592;51.402;6.054;2022-10-31T04:10:46;14.11;82.20
65989;HTU21D;53592;51.402;6.054;2022-10-31T04:13:21;14.11;82.25
65989;HTU21D;53592;51.402;6.054;2022-10-31T04:15:51;14.15;81.72
65989;HTU21D;53592;51.402;6.054;2022-10-31T04:19:09;14.15;81.11
65989;HTU21D;53592;51.402;6.054;2022-10-31T04:21:35;14.14;81.14
65989;HTU21D;53592;51.402;6.054;2022-10-31T04:24:00;14.11;81.22
65989;HTU21D;53592;51.402;6.054;2022-10-31T04:26:26;14.10;81.36
65989;HTU21D;53592;51.402;6.054;2022-10-31T04:28:51;14.14;81.20
65989;HTU21D;53592;51.402;6.054;2022-10-31T04:31:17;14.17;80.74
65989;HTU21D;53592;51.402;6.054;2022-10-31T04:33:43;14.14;80.28
65989;HTU21D;53592;51.402;6.054;2022-10-31T04:36:08;14.11;80.04
65989;HTU21D;53592;51.402;6.054;2022-10-31T04:38:34;14.06;80.03
65989;HTU21D;53592;51.402;6.054;2022-10-31T04:40:59;14.01;80.08
65989;HTU21D;53592;51.402;6.054;2022-10-31T04:43:25;13.92;80.23
65989;HTU21D;53592;51.402;6.054;2022-10-31T04:45:50;13.90;80.43
65989;HTU21D;53592;51.402;6.054;2022-10-31T04:48:16;13.86;80.25
65989;HTU21D;53592;51.402;6.054;2022-10-31T04:50:42;13.80;80.09
65989;HTU21D;53592;51.402;6.054;2022-10-31T04:53:08;13.71;80.40
65989;HTU21D;53592;51.402;6.054;2022-10-31T04:55:35;13.66;80.83
65989;HTU21D;53592;51.402;6.054;2022-10-31T04:58:00;13.63;81.08
65989;HTU21D;53592;51.402;6.054;2022-10-31T05:00:26;13.62;80.91
65989;HTU21D;53592;51.402;6.054;2022-10-31T05:02:54;13.62;80.56
65989;HTU21D;53592;51.402;6.054;2022-10-31T05:05:27;13.61;80.41
65989;HTU21D;53592;51.402;6.054;2022-10-31T05:07:53;13.60;80.33
65989;HTU21D;53592;51.402;6.054;2022-10-31T05:10:21;13.59;80.37
65989;HTU21D;53592;51.402;6.054;2022-10-31T05:15:18;13.59;80.59
65989;HTU21D;53592;51.402;6.054;2022-10-31T05:17:45;13.52;80.57
65989;HTU21D;53592;51.402;6.054;2022-10-31T05:20:12;13.48;80.64
65989;HTU21D;53592;51.402;6.054;2022-10-31T05:22:53;13.49;80.65
65989;HTU21D;53592;51.402;6.054;2022-10-31T05:25:20;13.47;80.49
65989;HTU21D;53592;51.402;6.054;2022-10-31T05:27:48;13.46;80.36
65989;HTU21D;53592;51.402;6.054;2022-10-31T05:30:16;13.52;80.07
65989;HTU21D;53592;51.402;6.054;2022-10-31T05:32:45;13.54;79.41
65989;HTU21D;53592;51.402;6.054;2022-10-31T05:35:13;13.47;79.40
65989;HTU21D;53592;51.402;6.054;2022-10-31T05:37:39;13.44;79.44
65989;HTU21D;53592;51.402;6.054;2022-10-31T05:40:07;13.40;79.69
65989;HTU21D;53592;51.402;6.054;2022-10-31T05:42:33;13.36;79.87
65989;HTU21D;53592;51.402;6.054;2022-10-31T05:44:59;13.32;79.95
65989;HTU21D;53592;51.402;6.054;2022-10-31T05:47:25;13.30;80.01
65989;HTU21D;53592;51.402;6.054;2022-10-31T05:49:50;13.32;80.00
65989;HTU21D;53592;51.402;6.054;2022-10-31T05:52:16;13.34;79.62
65989;HTU21D;53592;51.402;6.054;2022-10-31T05:54:41;13.34;79.30
65989;HTU21D;53592;51.402;6.054;2022-10-31T05:57:07;13.34;79.19
65989;HTU21D;53592;51.402;6.054;2022-10-31T05:59:33;13.36;79.27
65989;HTU21D;53592;51.402;6.054;2022-10-31T06:01:58;13.34;79.56
65989;HTU21D;53592;51.402;6.054;2022-10-31T06:04:24;13.32;79.47
65989;HTU21D;53592;51.402;6.054;2022-10-31T06:06:49;13.33;79.37
65989;HTU21D;53592;51.402;6.054;2022-10-31T06:09:15;13.27;79.14
65989;HTU21D;53592;51.402;6.054;2022-10-31T06:11:40;13.22;79.32
65989;HTU21D;53592;51.402;6.054;2022-10-31T06:14:06;13.20;79.49
65989;HTU21D;53592;51.402;6.054;2022-10-31T06:16:31;13.21;79.49
65989;HTU21D;53592;51.402;6.054;2022-10-31T06:18:57;13.21;79.53
65989;HTU21D;53592;51.402;6.054;2022-10-31T06:21:23;13.18;79.86
65989;HTU21D;53592;51.402;6.054;2022-10-31T06:23:49;13.19;79.73
65989;HTU21D;53592;51.402;6.054;2022-10-31T06:26:14;13.20;79.25
65989;HTU21D;53592;51.402;6.054;2022-10-31T06:28:40;13.15;79.42
65989;HTU21D;53592;51.402;6.054;2022-10-31T06:31:05;13.15;79.79
65989;HTU21D;53592;51.402;6.054;2022-10-31T06:33:32;13.12;80.33
65989;HTU21D;53592;51.402;6.054;2022-10-31T06:35:58;13.12;80.36
65989;HTU21D;53592;51.402;6.054;2022-10-31T06:38:25;13.17;80.39
65989;HTU21D;53592;51.402;6.054;2022-10-31T06:40:51;13.18;80.23
65989;HTU21D;53592;51.402;6.054;2022-10-31T06:43:17;13.20;79.85
65989;HTU21D;53592;51.402;6.054;2022-10-31T06:45:42;13.22;79.72
65989;HTU21D;53592;51.402;6.054;2022-10-31T06:48:08;13.20;80.30
65989;HTU21D;53592;51.402;6.054;2022-10-31T06:50:33;13.20;80.40
65989;HTU21D;53592;51.402;6.054;2022-10-31T06:52:59;13.20;80.07
65989;HTU21D;53592;51.402;6.054;2022-10-31T06:55:26;13.20;79.98
65989;HTU21D;53592;51.402;6.054;2022-10-31T06:57:53;13.22;79.82
65989;HTU21D;53592;51.402;6.054;2022-10-31T07:00:20;13.26;79.56
65989;HTU21D;53592;51.402;6.054;2022-10-31T07:03:03;13.27;79.67
65989;HTU21D;53592;51.402;6.054;2022-10-31T07:05:30;13.29;80.11
65989;HTU21D;53592;51.402;6.054;2022-10-31T07:08:01;13.31;79.96
65989;HTU21D;53592;51.402;6.054;2022-10-31T07:10:29;13.32;79.72
65989;HTU21D;53592;51.402;6.054;2022-10-31T07:12:56;13.34;79.68
65989;HTU21D;53592;51.402;6.054;2022-10-31T07:15:23;13.34;79.75
65989;HTU21D;53592;51.402;6.054;2022-10-31T07:17:49;13.33;80.17
65989;HTU21D;53592;51.402;6.054;2022-10-31T07:20:14;13.32;80.85
65989;HTU21D;53592;51.402;6.054;2022-10-31T07:22:40;13.33;81.11
65989;HTU21D;53592;51.402;6.054;2022-10-31T07:25:06;13.35;81.04
65989;HTU21D;53592;51.402;6.054;2022-10-31T07:27:39;13.37;80.79
65989;HTU21D;53592;51.402;6.054;2022-10-31T07:30:05;13.39;80.63
65989;HTU21D;53592;51.402;6.054;2022-10-31T07:32:42;13.43;80.83
65989;HTU21D;53592;51.402;6.054;2022-10-31T07:35:10;13.47;80.79
65989;HTU21D;53592;51.402;6.054;2022-10-31T07:37:35;13.51;80.45
65989;HTU21D;53592;51.402;6.054;2022-10-31T07:40:06;13.61;80.30
65989;HTU21D;53592;51.402;6.054;2022-10-31T07:45:02;13.65;80.94
65989;HTU21D;53592;51.402;6.054;2022-10-31T07:47:28;13.68;80.87
65989;HTU21D;53592;51.402;6.054;2022-10-31T07:49:54;13.75;80.55
65989;HTU21D;53592;51.402;6.054;2022-10-31T07:52:19;13.80;80.17
65989;HTU21D;53592;51.402;6.054;2022-10-31T07:54:44;13.81;80.01
65989;HTU21D;53592;51.402;6.054;2022-10-31T07:57:10;13.82;80.13
65989;HTU21D;53592;51.402;6.054;2022-10-31T07:59:35;13.88;80.13
65989;HTU21D;53592;51.402;6.054;2022-10-31T08:02:01;13.93;80.30
65989;HTU21D;53592;51.402;6.054;2022-10-31T08:04:26;13.96;80.66
65989;HTU21D;53592;51.402;6.054;2022-10-31T08:06:52;13.97;80.94
65989;HTU21D;53592;51.402;6.054;2022-10-31T08:09:17;14.03;81.19
65989;HTU21D;53592;51.402;6.054;2022-10-31T08:11:43;14.07;80.95
65989;HTU21D;53592;51.402;6.054;2022-10-31T08:14:08;14.10;80.75
65989;HTU21D;53592;51.402;6.054;2022-10-31T08:16:34;14.15;80.68
65989;HTU21D;53592;51.402;6.054;2022-10-31T08:18:59;14.25;80.78
65989;HTU21D;53592;51.402;6.054;2022-10-31T08:21:25;14.30;80.76
65989;HTU21D;53592;51.402;6.054;2022-10-31T08:23:50;14.37;80.84
65989;HTU21D;53592;51.402;6.054;2022-10-31T08:26:15;14.40;80.81
65989;HTU21D;53592;51.402;6.054;2022-10-31T08:28:41;14.49;80.85
65989;HTU21D;53592;51.402;6.054;2022-10-31T08:31:07;14.55;80.56
65989;HTU21D;53592;51.402;6.054;2022-10-31T08:33:32;14.62;80.33
65989;HTU21D;53592;51.402;6.054;2022-10-31T08:35:58;14.69;80.31
65989;HTU21D;53592;51.402;6.054;2022-10-31T08:38:24;14.74;80.74
65989;HTU21D;53592;51.402;6.054;2022-10-31T08:40:49;14.79;80.78
65989;HTU21D;53592;51.402;6.054;2022-10-31T08:43:17;14.85;80.97
65989;HTU21D;53592;51.402;6.054;2022-10-31T08:45:44;14.94;81.16
65989;HTU21D;53592;51.402;6.054;2022-10-31T08:48:12;15.06;81.24
65989;HTU21D;53592;51.402;6.054;2022-10-31T08:50:39;15.18;81.42
65989;HTU21D;53592;51.402;6.054;2022-10-31T08:53:07;15.30;81.59
65989;HTU21D;53592;51.402;6.054;2022-10-31T08:55:35;15.41;81.42
65989;HTU21D;53592;51.402;6.054;2022-10-31T08:58:01;15.49;81.54
65989;HTU21D;53592;51.402;6.054;2022-10-31T09:00:27;15.62;81.50
65989;HTU21D;53592;51.402;6.054;2022-10-31T09:03:03;15.65;81.51
65989;HTU21D;53592;51.402;6.054;2022-10-31T09:05:29;15.73;81.45
65989;HTU21D;53592;51.402;6.054;2022-10-31T09:07:59;15.84;81.32
65989;HTU21D;53592;51.402;6.054;2022-10-31T09:10:27;15.95;81.29
65989;HTU21D;53592;51.402;6.054;2022-10-31T09:13:00;16.04;81.03
65989;HTU21D;53592;51.402;6.054;2022-10-31T09:15:27;16.16;80.78
65989;HTU21D;53592;51.402;6.054;2022-10-31T09:17:53;16.32;80.75
65989;HTU21D;53592;51.402;6.054;2022-10-31T09:20:19;16.47;80.33
65989;HTU21D;53592;51.402;6.054;2022-10-31T09:22:46;16.61;79.75
65989;HTU21D;53592;51.402;6.054;2022-10-31T09:25:12;16.72;79.07
65989;HTU21D;53592;51.402;6.054;2022-10-31T09:27:37;16.82;78.26
65989;HTU21D;53592;51.402;6.054;2022-10-31T09:30:04;16.87;78.43
65989;HTU21D;53592;51.402;6.054;2022-10-31T09:32:30;17.03;78.46
65989;HTU21D;53592;51.402;6.054;2022-10-31T09:34:55;17.23;77.87
65989;HTU21D;53592;51.402;6.054;2022-10-31T09:37:21;17.44;77.56
65989;HTU21D;53592;51.402;6.054;2022-10-31T09:39:46;17.60;77.05
65989;HTU21D;53592;51.402;6.054;2022-10-31T09:45:11;17.95;75.28
65989;HTU21D;53592;51.402;6.054;2022-10-31T09:48:05;18.07;74.66
65989;HTU21D;53592;51.402;6.054;2022-10-31T09:51:04;18.19;74.01
65989;HTU21D;53592;51.402;6.054;2022-10-31T09:56:18;18.28;74.11
65989;HTU21D;53592;51.402;6.054;2022-10-31T09:58:51;18.42;73.40
65989;HTU21D;53592;51.402;6.054;2022-10-31T10:01:45;18.48;73.31
65989;HTU21D;53592;51.402;6.054;2022-10-31T10:04:42;18.56;72.74
65989;HTU21D;53592;51.402;6.054;2022-10-31T10:10:22;18.59;71.67
65989;HTU21D;53592;51.402;6.054;2022-10-31T10:21:16;18.78;72.22
65989;HTU21D;53592;51.402;6.054;2022-10-31T10:24:28;18.85;71.15
65989;HTU21D;53592;51.402;6.054;2022-10-31T10:27:25;18.91;71.06
65989;HTU21D;53592;51.402;6.054;2022-10-31T10:30:03;18.96;70.60
65989;HTU21D;53592;51.402;6.054;2022-10-31T10:32:46;18.97;70.46
65989;HTU21D;53592;51.402;6.054;2022-10-31T10:38:08;18.95;70.34
65989;HTU21D;53592;51.402;6.054;2022-10-31T10:40:37;18.93;70.12
65989;HTU21D;53592;51.402;6.054;2022-10-31T10:43:36;18.93;70.48
65989;HTU21D;53592;51.402;6.054;2022-10-31T10:49:14;18.87;69.98
65989;HTU21D;53592;51.402;6.054;2022-10-31T10:52:06;18.87;70.06
65989;HTU21D;53592;51.402;6.054;2022-10-31T10:54:56;18.81;69.92
65989;HTU21D;53592;51.402;6.054;2022-10-31T11:00:22;18.70;70.08
65989;HTU21D;53592;51.402;6.054;2022-10-31T11:02:48;18.68;70.13
65989;HTU21D;53592;51.402;6.054;2022-10-31T11:05:39;18.63;70.77
65989;HTU21D;53592;51.402;6.054;2022-10-31T11:08:08;18.79;69.93
65989;HTU21D;53592;51.402;6.054;2022-10-31T11:10:35;18.64;69.74
65989;HTU21D;53592;51.402;6.054;2022-10-31T11:13:21;18.55;70.04
65989;HTU21D;53592;51.402;6.054;2022-10-31T11:16:08;18.42;70.32
65989;HTU21D;53592;51.402;6.054;2022-10-31T11:18:39;18.42;70.03
65989;HTU21D;53592;51.402;6.054;2022-10-31T11:21:27;18.39;70.35
65989;HTU21D;53592;51.402;6.054;2022-10-31T11:26:36;18.29;70.25
65989;HTU21D;53592;51.402;6.054;2022-10-31T11:29:04;18.29;69.97
65989;HTU21D;53592;51.402;6.054;2022-10-31T11:31:32;18.18;70.73
65989;HTU21D;53592;51.402;6.054;2022-10-31T11:34:04;18.19;71.23
65989;HTU21D;53592;51.402;6.054;2022-10-31T11:36:34;18.22;71.12
65989;HTU21D;53592;51.402;6.054;2022-10-31T11:39:04;18.23;71.08
65989;HTU21D;53592;51.402;6.054;2022-10-31T11:41:36;18.23;71.16
65989;HTU21D;53592;51.402;6.054;2022-10-31T11:44:14;18.24;71.21
65989;HTU21D;53592;51.402;6.054;2022-10-31T11:46:47;18.27;71.27
65989;HTU21D;53592;51.402;6.054;2022-10-31T11:49:20;18.28;70.89
65989;HTU21D;53592;51.402;6.054;2022-10-31T11:51:54;18.29;70.74
65989;HTU21D;53592;51.402;6.054;2022-10-31T11:54:28;18.33;70.71
65989;HTU21D;53592;51.402;6.054;2022-10-31T11:56:55;18.38;70.73
65989;HTU21D;53592;51.402;6.054;2022-10-31T11:59:27;18.40;70.71
65989;HTU21D;53592;51.402;6.054;2022-10-31T12:01:55;18.39;70.31
65989;HTU21D;53592;51.402;6.054;2022-10-31T12:04:41;18.36;70.81
65989;HTU21D;53592;51.402;6.054;2022-10-31T12:07:07;18.37;70.68
65989;HTU21D;53592;51.402;6.054;2022-10-31T12:09:35;18.39;70.45
65989;HTU21D;53592;51.402;6.054;2022-10-31T12:12:40;18.44;70.55
65989;HTU21D;53592;51.402;6.054;2022-10-31T12:23:25;18.61;69.38
65989;HTU21D;53592;51.402;6.054;2022-10-31T12:26:19;18.52;70.07
65989;HTU21D;53592;51.402;6.054;2022-10-31T12:34:41;18.52;70.25
65989;HTU21D;53592;51.402;6.054;2022-10-31T12:37:56;18.53;69.67
65989;HTU21D;53592;51.402;6.054;2022-10-31T12:40:47;18.51;69.92
65989;HTU21D;53592;51.402;6.054;2022-10-31T12:43:46;18.50;70.07
65989;HTU21D;53592;51.402;6.054;2022-10-31T12:46:39;18.55;70.36
65989;HTU21D;53592;51.402;6.054;2022-10-31T12:52:06;18.59;69.96
65989;HTU21D;53592;51.402;6.054;2022-10-31T12:57:33;18.66;69.98
65989;HTU21D;53592;51.402;6.054;2022-10-31T13:00:11;18.70;70.15
65989;HTU21D;53592;51.402;6.054;2022-10-31T13:02:42;18.73;69.99
65989;HTU21D;53592;51.402;6.054;2022-10-31T13:07:44;18.79;69.41
65989;HTU21D;53592;51.402;6.054;2022-10-31T13:10:30;18.78;69.29
65989;HTU21D;53592;51.402;6.054;2022-10-31T13:13:06;18.74;69.26
65989;HTU21D;53592;51.402;6.054;2022-10-31T13:15:56;18.73;69.48
65989;HTU21D;53592;51.402;6.054;2022-10-31T13:18:38;18.74;69.56
65989;HTU21D;53592;51.402;6.054;2022-10-31T13:21:12;18.77;69.70
65989;HTU21D;53592;51.402;6.054;2022-10-31T13:23:43;18.78;69.39
65989;HTU21D;53592;51.402;6.054;2022-10-31T13:26:15;18.79;69.52
65989;HTU21D;53592;51.402;6.054;2022-10-31T13:29:04;18.77;69.21
65989;HTU21D;53592;51.402;6.054;2022-10-31T13:31:33;18.74;69.35
65989;HTU21D;53592;51.402;6.054;2022-10-31T13:34:06;18.72;69.45
65989;HTU21D;53592;51.402;6.054;2022-10-31T13:36:45;18.71;69.12
65989;HTU21D;53592;51.402;6.054;2022-10-31T13:39:46;18.73;69.13
65989;HTU21D;53592;51.402;6.054;2022-10-31T13:45:17;18.70;69.55
65989;HTU21D;53592;51.402;6.054;2022-10-31T13:47:58;18.73;69.29
65989;HTU21D;53592;51.402;6.054;2022-10-31T13:50:27;18.76;69.53
65989;HTU21D;53592;51.402;6.054;2022-10-31T13:53:14;18.79;69.39
65989;HTU21D;53592;51.402;6.054;2022-10-31T13:55:50;18.77;69.37
65989;HTU21D;53592;51.402;6.054;2022-10-31T13:58:29;18.81;69.17
65989;HTU21D;53592;51.402;6.054;2022-10-31T14:03:38;18.85;69.14
65989;HTU21D;53592;51.402;6.054;2022-10-31T14:06:07;18.94;68.79
65989;HTU21D;53592;51.402;6.054;2022-10-31T14:08:37;19.01;68.87
65989;HTU21D;53592;51.402;6.054;2022-10-31T14:11:07;19.13;68.03
65989;HTU21D;53592;51.402;6.054;2022-10-31T14:13:43;19.15;67.68
65989;HTU21D;53592;51.402;6.054;2022-10-31T14:16:30;19.16;67.91
65989;HTU21D;53592;51.402;6.054;2022-10-31T14:19:17;19.21;67.73
65989;HTU21D;53592;51.402;6.054;2022-10-31T14:21:52;19.28;67.25
65989;HTU21D;53592;51.402;6.054;2022-10-31T14:27:00;19.32;66.65
65989;HTU21D;53592;51.402;6.054;2022-10-31T14:29:31;19.33;66.75
65989;HTU21D;53592;51.402;6.054;2022-10-31T14:32:22;19.38;66.85
65989;HTU21D;53592;51.402;6.054;2022-10-31T14:34:58;19.39;66.33
65989;HTU21D;53592;51.402;6.054;2022-10-31T14:51:40;19.32;65.13
65989;HTU21D;53592;51.402;6.054;2022-10-31T14:54:29;19.22;65.61
65989;HTU21D;53592;51.402;6.054;2022-10-31T14:57:04;19.36;64.35
65989;HTU21D;53592;51.402;6.054;2022-10-31T14:59:35;19.17;64.94
65989;HTU21D;53592;51.402;6.054;2022-10-31T15:04:40;19.10;65.54
65989;HTU21D;53592;51.402;6.054;2022-10-31T15:07:16;19.01;65.97
65989;HTU21D;53592;51.402;6.054;2022-10-31T15:09:42;18.95;65.98
65989;HTU21D;53592;51.402;6.054;2022-10-31T15:12:26;0.00;66.21
65989;HTU21D;53592;51.402;6.054;2022-10-31T15:14:53;18.81;66.36
65989;HTU21D;53592;51.402;6.054;2022-10-31T15:17:22;18.78;66.59
65989;HTU21D;53592;51.402;6.054;2022-10-31T15:20:05;18.71;66.50
65989;HTU21D;53592;51.402;6.054;2022-10-31T15:22:31;18.64;66.89
65989;HTU21D;53592;51.402;6.054;2022-10-31T15:24:57;18.62;66.56
65989;HTU21D;53592;51.402;6.054;2022-10-31T15:27:24;18.56;66.86
65989;HTU21D;53592;51.402;6.054;2022-10-31T15:29:50;18.48;67.07
65989;HTU21D;53592;51.402;6.054;2022-10-31T15:32:27;18.44;67.08
65989;HTU21D;53592;51.402;6.054;2022-10-31T15:34:54;18.43;67.23
65989;HTU21D;53592;51.402;6.054;2022-10-31T15:37:22;18.40;67.38
65989;HTU21D;53592;51.402;6.054;2022-10-31T15:39:50;18.38;67.41
65989;HTU21D;53592;51.402;6.054;2022-10-31T15:42:28;18.34;67.39
65989;HTU21D;53592;51.402;6.054;2022-10-31T15:47:53;18.37;67.20
65989;HTU21D;53592;51.402;6.054;2022-10-31T15:50:37;18.32;67.33
65989;HTU21D;53592;51.402;6.054;2022-10-31T15:53:12;18.29;67.45
65989;HTU21D;53592;51.402;6.054;2022-10-31T15:55:50;18.27;67.46
65989;HTU21D;53592;51.402;6.054;2022-10-31T15:58:17;18.24;67.68
65989;HTU21D;53592;51.402;6.054;2022-10-31T16:00:43;18.20;67.78
65989;HTU21D;53592;51.402;6.054;2022-10-31T16:05:44;18.08;68.02
65989;HTU21D;53592;51.402;6.054;2022-10-31T16:13:34;17.89;68.62
65989;HTU21D;53592;51.402;6.054;2022-10-31T16:16:12;17.91;68.51
65989;HTU21D;53592;51.402;6.054;2022-10-31T16:18:41;17.80;68.95
65989;HTU21D;53592;51.402;6.054;2022-10-31T16:21:08;0.00;69.00
65989;HTU21D;53592;51.402;6.054;2022-10-31T16:23:37;17.72;69.23
65989;HTU21D;53592;51.402;6.054;2022-10-31T16:26:07;17.69;69.39
65989;HTU21D;53592;51.402;6.054;2022-10-31T16:28:33;17.70;69.31
65989;HTU21D;53592;51.402;6.054;2022-10-31T16:31:00;17.66;69.57
65989;HTU21D;53592;51.402;6.054;2022-10-31T16:33:32;17.70;69.34
65989;HTU21D;53592;51.402;6.054;2022-10-31T16:38:55;17.70;69.20
65989;HTU21D;53592;51.402;6.054;2022-10-31T16:41:22;17.69;69.29
65989;HTU21D;53592;51.402;6.054;2022-10-31T16:43:48;17.67;69.29
65989;HTU21D;53592;51.402;6.054;2022-10-31T16:46:25;17.75;68.87
65989;HTU21D;53592;51.402;6.054;2022-10-31T16:48:51;17.73;69.01
65989;HTU21D;53592;51.402;6.054;2022-10-31T16:51:17;17.70;69.00
65989;HTU21D;53592;51.402;6.054;2022-10-31T16:53:42;17.72;68.81
65989;HTU21D;53592;51.402;6.054;2022-10-31T16:56:17;17.68;68.95
65989;HTU21D;53592;51.402;6.054;2022-10-31T16:58:43;17.72;68.84
65989;HTU21D;53592;51.402;6.054;2022-10-31T17:01:11;17.68;68.83
65989;HTU21D;53592;51.402;6.054;2022-10-31T17:03:37;17.68;68.80
65989;HTU21D;53592;51.402;6.054;2022-10-31T17:06:03;17.61;69.09
65989;HTU21D;53592;51.402;6.054;2022-10-31T17:08:29;17.63;69.03
65989;HTU21D;53592;51.402;6.054;2022-10-31T17:10:56;17.59;69.15
65989;HTU21D;53592;51.402;6.054;2022-10-31T17:13:27;17.64;68.81
65989;HTU21D;53592;51.402;6.054;2022-10-31T17:15:55;17.58;69.05
65989;HTU21D;53592;51.402;6.054;2022-10-31T17:18:21;17.58;69.07
65989;HTU21D;53592;51.402;6.054;2022-10-31T17:20:48;17.47;69.45
65989;HTU21D;53592;51.402;6.054;2022-10-31T17:23:16;17.40;69.74
65989;HTU21D;53592;51.402;6.054;2022-10-31T17:25:42;17.37;70.01
65989;HTU21D;53592;51.402;6.054;2022-10-31T17:28:14;17.33;70.11
65989;HTU21D;53592;51.402;6.054;2022-10-31T17:30:41;17.25;70.36
65989;HTU21D;53592;51.402;6.054;2022-10-31T17:33:15;17.22;70.54
65989;HTU21D;53592;51.402;6.054;2022-10-31T17:35:41;17.18;70.64
65989;HTU21D;53592;51.402;6.054;2022-10-31T17:38:07;17.11;70.92